createdAt,value
2024-01-24T00:01:23.350Z,3.50
2024-01-24T00:04:49.299Z,3.80
2024-01-24T00:08:15.335Z,3.78
2024-01-24T00:11:43.817Z,3.38
2024-01-24T00:15:13.200Z,4.05
2024-01-24T00:18:40.053Z,3.58
2024-01-24T00:22:06.435Z,3.33
2024-01-24T00:25:31.928Z,2.53
2024-01-24T00:28:58.171Z,3.38
2024-01-24T00:32:26.806Z,3.88
2024-01-24T00:35:52.482Z,3.38
2024-01-24T00:39:18.798Z,3.70
2024-01-24T00:42:44.617Z,3.83
2024-01-24T00:46:10.448Z,3.00
2024-01-24T00:49:39.222Z,3.15
2024-01-24T00:53:04.720Z,1.95
2024-01-24T00:56:30.694Z,2.20
2024-01-24T00:59:56.512Z,3.08
2024-01-24T01:03:22.921Z,2.28
2024-01-24T01:06:51.614Z,2.65
2024-01-24T01:10:17.548Z,2.60
2024-01-24T01:13:43.525Z,2.05
2024-01-24T01:17:09.532Z,2.40
2024-01-24T01:20:36.114Z,2.03
2024-01-24T01:24:04.823Z,2.22
2024-01-24T01:27:30.726Z,2.75
2024-01-24T01:30:56.637Z,3.40
2024-01-24T01:34:22.598Z,2.22
2024-01-24T01:37:48.485Z,2.42
2024-01-24T01:41:17.217Z,1.55
2024-01-24T01:44:47.245Z,2.25
2024-01-24T01:48:13.180Z,1.88
2024-01-24T01:51:39.824Z,2.33
2024-01-24T01:55:05.878Z,2.70
2024-01-24T01:58:34.454Z,1.92
2024-01-24T02:02:01.321Z,2.40
2024-01-24T02:05:27.204Z,2.10
2024-01-24T02:08:52.939Z,2.33
2024-01-24T02:12:18.761Z,1.83
2024-01-24T02:15:46.898Z,2.75
2024-01-24T02:19:12.866Z,2.28
2024-01-24T02:22:38.689Z,1.70
2024-01-24T02:26:07.191Z,1.73
2024-01-24T02:29:32.961Z,1.58
2024-01-24T02:32:58.819Z,2.42
2024-01-24T02:36:24.769Z,1.88
2024-01-24T02:39:50.942Z,2.97
2024-01-24T02:43:19.401Z,1.95
2024-01-24T02:46:44.781Z,2.30
2024-01-24T02:50:13.287Z,2.08
2024-01-24T02:53:40.933Z,1.85
2024-01-24T02:57:06.548Z,2.30
2024-01-24T03:00:34.994Z,2.28
2024-01-24T03:04:00.888Z,1.70
2024-01-24T03:07:26.383Z,1.90
2024-01-24T03:10:52.164Z,2.13
2024-01-24T03:14:17.564Z,1.77
2024-01-24T03:17:46.002Z,1.77
2024-01-24T03:21:12.493Z,1.23
2024-01-24T03:24:38.362Z,1.83
2024-01-24T03:28:04.134Z,1.88
2024-01-24T03:31:29.509Z,1.60
2024-01-24T03:35:01.666Z,1.38
2024-01-24T03:38:27.478Z,1.20
2024-01-24T03:41:52.961Z,1.40
2024-01-24T03:45:18.890Z,1.10
2024-01-24T03:48:44.912Z,0.93
2024-01-24T03:52:13.327Z,1.20
2024-01-24T03:55:39.082Z,1.17
2024-01-24T03:59:05.546Z,1.00
2024-01-24T04:02:31.322Z,1.02
2024-01-24T04:05:57.394Z,0.88
2024-01-24T04:09:25.799Z,0.52
2024-01-24T04:12:51.860Z,0.40
2024-01-24T04:16:18.024Z,0.68
2024-01-24T04:19:43.821Z,1.05
2024-01-24T04:23:09.674Z,0.60
2024-01-24T04:26:38.095Z,0.65
2024-01-24T04:30:04.017Z,0.50
2024-01-24T04:33:29.963Z,0.70
2024-01-24T04:36:57.364Z,0.70
2024-01-24T04:40:24.695Z,0.60
2024-01-24T04:43:53.118Z,0.52
2024-01-24T04:47:19.251Z,0.80
2024-01-24T04:50:45.058Z,0.52
2024-01-24T04:54:11.531Z,0.75
2024-01-24T04:57:37.873Z,0.47
2024-01-24T05:01:06.382Z,0.40
2024-01-24T05:04:32.280Z,0.50
2024-01-24T05:07:58.153Z,0.60
2024-01-24T05:11:26.148Z,0.40
2024-01-24T05:14:51.868Z,0.60
2024-01-24T05:18:21.523Z,0.40
2024-01-24T05:21:47.428Z,0.57
2024-01-24T05:25:12.869Z,0.60
2024-01-24T05:28:38.622Z,0.43
2024-01-24T05:32:04.384Z,0.60
2024-01-24T05:35:32.706Z,0.50
2024-01-24T05:38:57.907Z,0.50
2024-01-24T05:42:24.359Z,0.60
2024-01-24T05:45:53.047Z,0.60
2024-01-24T05:49:19.080Z,0.60
2024-01-24T05:52:48.082Z,0.75
2024-01-24T05:56:13.893Z,0.85
2024-01-24T05:59:40.750Z,1.00
2024-01-24T06:03:06.831Z,0.95
2024-01-24T06:06:32.485Z,1.30
2024-01-24T06:10:01.704Z,1.27
2024-01-24T06:13:28.988Z,2.10
2024-01-24T06:16:54.879Z,1.63
2024-01-24T06:20:20.715Z,1.50
2024-01-24T06:23:46.514Z,1.67
2024-01-24T06:27:14.679Z,2.35
2024-01-24T06:30:40.692Z,1.73
2024-01-24T06:34:06.575Z,1.90
2024-01-24T06:37:33.145Z,1.75
2024-01-24T06:40:58.975Z,1.50
2024-01-24T06:44:27.649Z,1.60
2024-01-24T06:47:53.512Z,1.98
2024-01-24T06:51:19.317Z,2.15
2024-01-24T06:54:45.128Z,1.60
2024-01-24T06:58:12.422Z,1.50
2024-01-24T07:01:41.410Z,1.52
2024-01-24T07:05:07.197Z,1.42
2024-01-24T07:08:33.368Z,1.10
2024-01-24T07:11:59.155Z,1.80
2024-01-24T07:15:24.566Z,1.30
2024-01-24T07:18:53.156Z,1.10
2024-01-24T07:22:19.031Z,1.08
2024-01-24T07:25:44.802Z,1.30
2024-01-24T07:29:10.992Z,1.20
2024-01-24T07:32:36.837Z,0.90
2024-01-24T07:36:06.748Z,0.73
2024-01-24T07:39:32.555Z,1.70
2024-01-24T07:42:59.329Z,1.33
2024-01-24T07:46:27.064Z,1.90
2024-01-24T07:49:53.140Z,1.63
2024-01-24T07:53:21.289Z,1.58
2024-01-24T07:56:47.256Z,1.40
2024-01-24T08:00:18.129Z,1.38
2024-01-24T08:03:45.727Z,2.60
2024-01-24T08:07:11.987Z,2.13
2024-01-24T08:10:40.463Z,2.22
2024-01-24T08:14:06.289Z,2.30
2024-01-24T08:17:32.047Z,2.55
2024-01-24T08:20:57.238Z,1.35
2024-01-24T08:24:23.135Z,1.73
2024-01-24T08:27:52.188Z,2.80
2024-01-24T08:31:18.154Z,1.83
2024-01-24T08:34:45.149Z,1.90
2024-01-24T08:38:11.209Z,2.30
2024-01-24T08:41:36.920Z,1.67
2024-01-24T08:45:05.307Z,1.70
2024-01-24T08:48:31.253Z,2.17
2024-01-24T08:51:56.779Z,1.40
2024-01-24T08:55:23.067Z,1.92
2024-01-24T08:58:48.827Z,1.75
2024-01-24T09:02:16.956Z,1.50
2024-01-24T09:05:43.364Z,1.77
2024-01-24T09:09:09.934Z,1.67
2024-01-24T09:12:36.122Z,2.35
2024-01-24T09:16:02.162Z,1.90
2024-01-24T09:19:30.671Z,1.80
2024-01-24T09:22:57.216Z,2.25
2024-01-24T09:26:22.471Z,2.17
2024-01-24T09:29:48.338Z,1.95
2024-01-24T09:33:13.842Z,2.28
2024-01-24T09:36:42.547Z,2.10
2024-01-24T09:40:10.601Z,2.42
2024-01-24T09:43:36.911Z,2.30
2024-01-24T09:47:02.617Z,2.42
2024-01-24T09:50:28.745Z,2.28
2024-01-24T09:53:57.628Z,2.55
2024-01-24T09:57:23.904Z,1.63
2024-01-24T10:00:52.826Z,3.00
2024-01-24T10:04:19.081Z,2.25
2024-01-24T10:07:45.282Z,2.92
2024-01-24T10:11:13.688Z,2.75
2024-01-24T10:14:42.437Z,2.72
2024-01-24T10:18:08.558Z,1.92
2024-01-24T10:21:34.576Z,4.55
2024-01-24T10:25:00.993Z,4.18
2024-01-24T10:28:29.925Z,2.08
2024-01-24T10:31:59.224Z,2.63
2024-01-24T10:35:25.299Z,2.28
2024-01-24T10:38:51.561Z,2.78
2024-01-24T10:42:21.543Z,4.20
2024-01-24T10:45:51.371Z,2.72
2024-01-24T10:49:20.298Z,2.30
2024-01-24T10:52:47.036Z,3.25
2024-01-24T10:56:14.026Z,2.75
2024-01-24T10:59:40.012Z,3.55
2024-01-24T11:03:09.165Z,2.38
2024-01-24T11:06:37.062Z,2.60
2024-01-24T11:10:10.632Z,3.80
2024-01-24T11:13:38.393Z,3.30
2024-01-24T11:17:04.692Z,3.22
2024-01-24T11:20:36.043Z,3.08
2024-01-24T11:24:01.591Z,3.40
2024-01-24T11:27:42.529Z,3.78
2024-01-24T11:31:09.007Z,3.38
2024-01-24T11:34:34.850Z,2.35
2024-01-24T11:38:12.925Z,3.50
2024-01-24T11:41:47.008Z,3.60
2024-01-24T11:45:19.582Z,2.47
2024-01-24T11:48:45.492Z,3.97
2024-01-24T11:52:11.415Z,2.15
2024-01-24T11:55:39.486Z,2.75
2024-01-24T11:59:05.321Z,2.88
2024-01-24T12:02:31.129Z,3.13
2024-01-24T12:05:56.746Z,2.95
2024-01-24T12:09:24.588Z,2.45
2024-01-24T12:12:53.651Z,1.50
2024-01-24T12:16:21.424Z,4.35
2024-01-24T12:19:47.671Z,3.03
2024-01-24T12:23:13.838Z,2.65
2024-01-24T12:26:42.003Z,2.38
2024-01-24T12:30:13.368Z,2.58
2024-01-24T12:33:40.769Z,2.65
2024-01-24T12:37:07.028Z,3.40
2024-01-24T12:40:32.579Z,3.35
2024-01-24T12:43:59.438Z,3.42
2024-01-24T12:47:29.561Z,2.78
2024-01-24T12:50:56.124Z,3.33
2024-01-24T12:54:22.292Z,3.25
2024-01-24T12:57:48.001Z,2.35
2024-01-24T13:01:14.108Z,3.65
2024-01-24T13:04:43.119Z,2.33
2024-01-24T13:08:09.671Z,3.63
2024-01-24T13:11:35.925Z,2.47
2024-01-24T13:15:03.695Z,3.40
2024-01-24T13:18:29.559Z,3.05
2024-01-24T13:22:00.335Z,2.90
2024-01-24T13:25:27.058Z,3.63
2024-01-24T13:28:52.866Z,3.83
2024-01-24T13:32:18.460Z,3.22
2024-01-24T13:35:44.323Z,3.58
2024-01-24T13:39:15.652Z,3.58
2024-01-24T13:42:41.307Z,3.45
2024-01-24T13:46:07.369Z,4.68
2024-01-24T13:49:33.249Z,3.17
2024-01-24T13:52:59.612Z,3.45
2024-01-24T13:56:28.434Z,2.58
2024-01-24T13:59:54.208Z,2.85
2024-01-24T14:03:20.065Z,4.32
2024-01-24T14:06:46.609Z,2.70
2024-01-24T14:10:13.850Z,3.70
2024-01-24T14:13:42.465Z,2.10
2024-01-24T14:17:08.350Z,3.40
2024-01-24T14:20:34.665Z,2.63
2024-01-24T14:24:00.907Z,2.75
2024-01-24T14:27:27.731Z,3.15
2024-01-24T14:30:55.867Z,2.85
2024-01-24T14:34:24.946Z,2.15
2024-01-24T14:37:50.923Z,2.30
2024-01-24T14:41:16.913Z,2.42
2024-01-24T14:44:42.696Z,2.17
2024-01-24T14:48:11.960Z,2.10
2024-01-24T14:51:37.843Z,3.63
2024-01-24T14:55:03.898Z,3.03
2024-01-24T14:58:29.771Z,3.95
2024-01-24T15:01:55.269Z,2.95
2024-01-24T15:05:25.523Z,2.20
2024-01-24T15:08:51.426Z,3.13
2024-01-24T15:12:16.812Z,1.75
2024-01-24T15:15:42.786Z,2.08
2024-01-24T15:19:08.667Z,2.75
2024-01-24T15:22:37.692Z,1.95
2024-01-24T15:26:06.054Z,2.70
2024-01-24T15:29:31.862Z,1.42
2024-01-24T15:32:57.658Z,2.75
2024-01-24T15:36:24.011Z,2.08
2024-01-24T15:39:52.227Z,2.70
2024-01-24T15:43:19.626Z,3.58
2024-01-24T15:46:45.495Z,2.85
2024-01-24T15:50:11.319Z,2.75
2024-01-24T15:53:37.627Z,2.42
2024-01-24T15:57:05.969Z,4.00
2024-01-24T16:00:31.969Z,3.35
2024-01-24T16:03:59.124Z,2.63
2024-01-24T16:07:25.076Z,4.43
2024-01-24T16:10:51.426Z,2.55
2024-01-24T16:14:19.986Z,4.07
2024-01-24T16:17:46.805Z,3.42
2024-01-24T16:21:12.651Z,3.63
2024-01-24T16:24:38.612Z,2.65
2024-01-24T16:28:04.317Z,3.33
2024-01-24T16:31:32.930Z,3.00
2024-01-24T16:34:58.459Z,2.50
2024-01-24T16:38:24.519Z,3.05
2024-01-24T16:41:50.281Z,2.65
2024-01-24T16:45:16.056Z,3.35
2024-01-24T16:48:45.151Z,4.25
2024-01-24T16:52:12.242Z,4.18
2024-01-24T16:55:38.541Z,3.03
2024-01-24T16:59:05.061Z,3.40
2024-01-24T17:02:38.312Z,2.42
2024-01-24T17:06:12.322Z,2.60
2024-01-24T17:09:39.620Z,3.67
2024-01-24T17:13:05.557Z,1.67
2024-01-24T17:16:31.734Z,3.08
2024-01-24T17:19:57.961Z,3.30
2024-01-24T17:23:26.781Z,3.85
2024-01-24T17:26:53.350Z,2.92
2024-01-24T17:30:20.533Z,2.88
2024-01-24T17:33:46.945Z,3.13
2024-01-24T17:37:13.014Z,3.00
2024-01-24T17:40:42.085Z,4.70
2024-01-24T17:44:08.328Z,2.50
2024-01-24T17:47:35.501Z,2.65
2024-01-24T17:51:04.222Z,2.75
2024-01-24T17:54:30.345Z,4.15
2024-01-24T17:57:58.782Z,4.25
2024-01-24T18:01:25.165Z,3.10
2024-01-24T18:04:51.605Z,5.13
2024-01-24T18:08:18.023Z,4.78
2024-01-24T18:11:45.462Z,5.35
2024-01-24T18:15:19.118Z,4.00
2024-01-24T18:18:45.079Z,4.55
2024-01-24T18:22:12.685Z,3.72
2024-01-24T18:25:38.127Z,5.50
2024-01-24T18:29:04.224Z,4.22
2024-01-24T18:32:33.323Z,6.32
2024-01-24T18:35:59.123Z,4.20
2024-01-24T18:39:24.739Z,4.15
2024-01-24T18:42:50.679Z,4.68
2024-01-24T18:46:17.897Z,3.55
2024-01-24T18:49:46.355Z,4.15
2024-01-24T18:53:12.204Z,4.22
2024-01-24T18:56:38.519Z,3.10
2024-01-24T19:00:05.800Z,3.47
2024-01-24T19:03:31.998Z,3.55
2024-01-24T19:07:00.527Z,4.47
2024-01-24T19:10:26.457Z,6.93
2024-01-24T19:13:52.289Z,3.85
2024-01-24T19:17:18.282Z,6.00
2024-01-24T19:20:45.427Z,5.03
2024-01-24T19:24:14.319Z,4.20
2024-01-24T19:27:40.263Z,6.07
2024-01-24T19:31:06.573Z,3.85
2024-01-24T19:34:33.031Z,4.07
2024-01-24T19:37:58.863Z,3.53
2024-01-24T19:41:30.370Z,3.75
2024-01-24T19:44:56.248Z,4.38
2024-01-24T19:48:22.085Z,5.40
2024-01-24T19:51:49.830Z,4.50
2024-01-24T19:55:16.285Z,3.95
2024-01-24T19:58:44.659Z,3.80
2024-01-24T20:02:10.484Z,4.10
2024-01-24T20:05:38.588Z,4.30
2024-01-24T20:09:04.009Z,4.07
2024-01-24T20:12:29.857Z,4.00
2024-01-24T20:15:58.977Z,3.83
2024-01-24T20:19:24.874Z,3.85
2024-01-24T20:22:57.205Z,3.78
2024-01-24T20:26:23.760Z,5.32
2024-01-24T20:29:49.677Z,5.15
2024-01-24T20:33:18.380Z,3.58
2024-01-24T20:36:43.995Z,3.55
2024-01-24T20:40:10.745Z,4.75
2024-01-24T20:43:36.671Z,3.65
2024-01-24T20:47:02.523Z,4.93
2024-01-24T20:50:30.588Z,5.95
2024-01-24T20:53:56.464Z,5.38
2024-01-24T20:57:23.799Z,3.95
2024-01-24T21:00:50.353Z,4.22
2024-01-24T21:04:16.066Z,5.07
2024-01-24T21:07:45.050Z,5.47
2024-01-24T21:11:11.906Z,4.70
2024-01-24T21:14:37.744Z,3.78
2024-01-24T21:18:03.268Z,5.35
2024-01-24T21:21:29.675Z,4.47
2024-01-24T21:24:57.791Z,5.85
2024-01-24T21:28:23.750Z,5.00
2024-01-24T21:31:50.784Z,4.15
2024-01-24T21:35:16.306Z,4.82
2024-01-24T21:38:43.082Z,5.32
2024-01-24T21:42:11.170Z,4.50
2024-01-24T21:45:36.937Z,5.00
2024-01-24T21:49:02.441Z,5.25
2024-01-24T21:52:28.330Z,6.00
2024-01-24T21:55:53.743Z,5.95
2024-01-24T21:59:22.163Z,4.22
2024-01-24T22:02:47.561Z,3.78
2024-01-24T22:06:14.837Z,4.97
2024-01-24T22:09:41.550Z,3.78
2024-01-24T22:13:08.047Z,6.60
2024-01-24T22:16:36.542Z,5.38
2024-01-24T22:20:02.315Z,3.83
2024-01-24T22:23:27.734Z,5.68
2024-01-24T22:26:53.623Z,4.15
2024-01-24T22:30:19.391Z,3.35
2024-01-24T22:33:49.333Z,6.20
2024-01-24T22:37:18.928Z,4.70
2024-01-24T22:40:45.216Z,3.90
2024-01-24T22:44:11.402Z,6.00
2024-01-24T22:47:37.406Z,4.40
2024-01-24T22:51:05.823Z,3.88
2024-01-24T22:54:31.287Z,5.13
2024-01-24T22:57:57.297Z,4.90
2024-01-24T23:01:22.803Z,4.47
2024-01-24T23:04:48.814Z,4.32
2024-01-24T23:08:17.424Z,4.18
2024-01-24T23:11:43.280Z,5.50
2024-01-24T23:15:09.893Z,4.15
2024-01-24T23:18:35.328Z,4.88
2024-01-24T23:22:01.193Z,4.75
2024-01-24T23:25:29.457Z,3.75
2024-01-24T23:28:55.396Z,5.13
2024-01-24T23:32:21.600Z,5.75
2024-01-24T23:35:47.734Z,3.30
2024-01-24T23:39:13.375Z,3.47
2024-01-24T23:42:41.935Z,5.22
2024-01-24T23:46:07.939Z,5.65
2024-01-24T23:49:34.017Z,4.82
2024-01-24T23:53:01.681Z,5.45
2024-01-24T23:56:27.554Z,5.57
2024-01-24T23:59:55.645Z,6.07
